createdAt,value
2019-02-18T00:01:20.226Z,77.80
2019-02-18T00:03:27.965Z,78.00
2019-02-18T00:05:35.703Z,77.90
2019-02-18T00:07:43.273Z,78.17
2019-02-18T00:09:51.015Z,78.00
2019-02-18T00:11:58.800Z,78.22
2019-02-18T00:14:06.642Z,78.36
2019-02-18T00:16:14.658Z,77.87
2019-02-18T00:18:22.477Z,77.36
2019-02-18T00:20:30.249Z,77.36
2019-02-18T00:22:37.974Z,77.78
2019-02-18T00:24:45.626Z,77.63
2019-02-18T00:26:53.343Z,77.85
2019-02-18T00:29:01.141Z,78.33
2019-02-18T00:31:08.865Z,78.23
2019-02-18T00:33:16.472Z,78.23
2019-02-18T00:35:24.114Z,78.11
2019-02-18T00:37:31.810Z,78.26
2019-02-18T00:39:39.530Z,78.70
2019-02-18T00:41:49.305Z,78.13
2019-02-18T00:43:56.705Z,77.88
2019-02-18T00:46:04.463Z,77.72
2019-02-18T00:48:12.372Z,78.53
2019-02-18T00:50:20.067Z,78.34
2019-02-18T00:52:27.837Z,78.12
2019-02-18T00:54:35.546Z,78.20
2019-02-18T00:56:43.203Z,78.33
2019-02-18T00:58:50.991Z,78.11
2019-02-18T01:00:58.843Z,78.56
2019-02-18T01:03:06.611Z,78.32
2019-02-18T01:05:14.500Z,78.38
2019-02-18T01:07:22.233Z,78.44
2019-02-18T01:09:30.011Z,78.38
2019-02-18T01:11:37.678Z,78.26
2019-02-18T01:13:45.515Z,78.29
2019-02-18T01:15:53.267Z,78.40
2019-02-18T01:18:00.845Z,78.57
2019-02-18T01:20:09.840Z,78.28
2019-02-18T01:22:17.589Z,78.21
2019-02-18T01:24:25.400Z,77.87
2019-02-18T01:26:33.083Z,78.64
2019-02-18T01:28:40.847Z,78.62
2019-02-18T01:30:48.510Z,79.22
2019-02-18T01:32:56.247Z,79.48
2019-02-18T01:35:04.073Z,79.30
2019-02-18T01:37:11.909Z,79.07
2019-02-18T01:39:19.659Z,79.19
2019-02-18T01:41:27.376Z,79.28
2019-02-18T01:43:35.056Z,79.16
2019-02-18T01:45:42.800Z,78.99
2019-02-18T01:47:50.527Z,79.17
2019-02-18T01:49:58.297Z,79.17
2019-02-18T01:52:06.031Z,79.17
2019-02-18T01:54:13.851Z,79.04
2019-02-18T01:56:21.520Z,79.40
2019-02-18T01:58:29.104Z,79.14
2019-02-18T02:00:37.011Z,79.27
2019-02-18T02:02:45.004Z,79.38
2019-02-18T02:04:52.427Z,79.28
2019-02-18T02:07:00.023Z,79.19
2019-02-18T02:09:12.791Z,79.09
2019-02-18T02:11:20.470Z,79.24
2019-02-18T02:13:33.411Z,79.22
2019-02-18T02:15:41.223Z,78.79
2019-02-18T02:17:49.035Z,79.16
2019-02-18T02:19:56.864Z,79.74
2019-02-18T02:22:04.541Z,79.72
2019-02-18T02:24:12.321Z,78.78
2019-02-18T02:26:20.075Z,78.75
2019-02-18T02:28:27.906Z,79.20
2019-02-18T02:30:35.354Z,79.35
2019-02-18T02:32:43.091Z,79.38
2019-02-18T02:34:50.718Z,79.40
2019-02-18T02:36:58.472Z,79.12
2019-02-18T02:39:06.976Z,78.81
2019-02-18T02:41:14.702Z,79.19
2019-02-18T02:43:22.460Z,78.85
2019-02-18T02:45:30.345Z,79.27
2019-02-18T02:47:37.989Z,79.33
2019-02-18T02:49:45.532Z,78.84
2019-02-18T02:51:53.061Z,79.80
2019-02-18T02:54:00.675Z,79.81
2019-02-18T02:56:08.383Z,79.60
2019-02-18T02:58:16.006Z,79.33
2019-02-18T03:00:23.567Z,78.75
2019-02-18T03:02:31.205Z,79.20
2019-02-18T03:04:39.030Z,79.27
2019-02-18T03:06:46.726Z,79.31
2019-02-18T03:08:54.364Z,79.33
2019-02-18T03:11:02.006Z,79.71
2019-02-18T03:13:09.812Z,79.78
2019-02-18T03:15:17.370Z,79.61
2019-02-18T03:17:25.027Z,79.37
2019-02-18T03:19:32.905Z,78.98
2019-02-18T03:21:40.521Z,79.17
2019-02-18T03:23:48.254Z,78.73
2019-02-18T03:25:56.980Z,79.28
2019-02-18T03:28:32.925Z,79.17
2019-02-18T03:30:57.949Z,79.33
2019-02-18T03:33:05.758Z,79.30
2019-02-18T03:35:13.505Z,79.43
2019-02-18T03:37:21.303Z,79.44
2019-02-18T03:39:28.978Z,79.48
2019-02-18T03:41:36.988Z,79.49
2019-02-18T03:43:44.965Z,79.57
2019-02-18T03:45:52.552Z,79.60
2019-02-18T03:48:00.352Z,79.71
2019-02-18T03:50:08.408Z,79.64
2019-02-18T03:52:16.086Z,79.58
2019-02-18T03:54:24.153Z,79.49
2019-02-18T03:56:31.871Z,79.65
2019-02-18T03:58:39.769Z,79.45
2019-02-18T04:00:47.714Z,79.53
2019-02-18T04:02:55.444Z,79.71
2019-02-18T04:05:03.199Z,79.72
2019-02-18T04:07:10.920Z,79.72
2019-02-18T04:09:18.578Z,78.91
2019-02-18T04:11:26.438Z,79.73
2019-02-18T04:13:34.124Z,79.73
2019-02-18T04:15:41.800Z,79.49
2019-02-18T04:17:49.559Z,79.48
2019-02-18T04:19:57.280Z,79.77
2019-02-18T04:22:05.067Z,79.78
2019-02-18T04:24:12.730Z,79.50
2019-02-18T04:26:20.406Z,79.38
2019-02-18T04:28:28.029Z,79.53
2019-02-18T04:30:35.948Z,79.33
2019-02-18T04:32:43.403Z,79.64
2019-02-18T04:34:51.148Z,79.81
2019-02-18T04:36:58.871Z,79.99
2019-02-18T04:39:07.703Z,80.16
2019-02-18T04:41:15.337Z,80.21
2019-02-18T04:43:23.060Z,79.75
2019-02-18T04:45:30.654Z,79.71
2019-02-18T04:47:38.280Z,79.35
2019-02-18T04:49:45.999Z,79.64
2019-02-18T04:51:53.626Z,79.31
2019-02-18T04:54:01.451Z,78.97
2019-02-18T04:56:09.289Z,79.47
2019-02-18T04:58:17.065Z,79.01
2019-02-18T05:00:24.799Z,78.16
2019-02-18T05:02:32.371Z,79.09
2019-02-18T05:04:40.306Z,79.09
2019-02-18T05:06:48.002Z,79.47
2019-02-18T05:09:05.094Z,79.85
2019-02-18T05:11:05.136Z,80.08
2019-02-18T05:13:12.819Z,79.28
2019-02-18T05:15:20.448Z,78.98
2019-02-18T05:17:28.070Z,79.26
2019-02-18T05:19:36.030Z,79.89
2019-02-18T05:21:43.749Z,80.18
2019-02-18T05:23:51.451Z,79.65
2019-02-18T05:25:59.226Z,79.66
2019-02-18T05:28:06.997Z,80.28
2019-02-18T05:30:14.756Z,80.62
2019-02-18T05:32:22.468Z,80.92
2019-02-18T05:34:30.161Z,80.87
2019-02-18T05:36:37.968Z,80.43
2019-02-18T05:38:45.694Z,80.71
2019-02-18T05:40:53.338Z,80.56
2019-02-18T05:43:01.123Z,80.60
2019-02-18T05:45:08.991Z,80.07
2019-02-18T05:47:17.635Z,80.07
2019-02-18T05:49:25.560Z,79.96
2019-02-18T05:51:33.229Z,79.98
2019-02-18T05:53:40.986Z,79.18
2019-02-18T05:55:48.767Z,78.66
2019-02-18T05:57:56.372Z,78.11
2019-02-18T06:00:04.083Z,78.60
2019-02-18T06:02:11.750Z,79.32
2019-02-18T06:04:19.561Z,79.92
2019-02-18T06:06:27.259Z,80.25
2019-02-18T06:08:34.935Z,79.57
2019-02-18T06:10:42.650Z,79.12
2019-02-18T06:12:50.351Z,78.66
2019-02-18T06:14:58.151Z,78.37
2019-02-18T06:17:05.764Z,79.08
2019-02-18T06:19:13.613Z,79.68
2019-02-18T06:21:21.301Z,79.98
2019-02-18T06:23:29.006Z,80.33
2019-02-18T06:25:36.755Z,80.34
2019-02-18T06:27:44.655Z,80.42
2019-02-18T06:29:52.423Z,80.29
2019-02-18T06:32:00.166Z,79.96
2019-02-18T06:34:07.907Z,79.62
2019-02-18T06:36:15.726Z,79.35
2019-02-18T06:38:23.472Z,79.53
2019-02-18T06:40:31.411Z,79.40
2019-02-18T06:42:39.049Z,79.17
2019-02-18T06:44:55.579Z,79.24
2019-02-18T06:47:07.643Z,78.57
2019-02-18T06:49:17.550Z,77.99
2019-02-18T06:51:25.389Z,78.69
2019-02-18T06:53:33.199Z,77.92
2019-02-18T06:55:40.856Z,77.41
2019-02-18T06:58:16.057Z,78.09
2019-02-18T07:00:38.960Z,77.89
2019-02-18T07:02:57.588Z,79.43
2019-02-18T07:05:13.486Z,78.96
2019-02-18T07:07:45.990Z,78.32
2019-02-18T07:10:06.299Z,78.07
2019-02-18T07:12:26.865Z,78.08
2019-02-18T07:14:34.590Z,77.76
2019-02-18T07:16:42.305Z,77.83
2019-02-18T07:18:50.037Z,77.79
2019-02-18T07:20:57.733Z,78.51
2019-02-18T07:23:05.416Z,77.76
2019-02-18T07:25:13.349Z,77.56
2019-02-18T07:27:21.075Z,76.95
2019-02-18T07:29:28.766Z,76.68
2019-02-18T07:31:36.428Z,76.78
2019-02-18T07:33:44.232Z,76.82
2019-02-18T07:35:51.904Z,77.18
2019-02-18T07:37:59.684Z,77.11
2019-02-18T07:40:08.936Z,77.29
2019-02-18T07:42:16.760Z,77.17
2019-02-18T07:44:24.425Z,77.09
2019-02-18T07:46:32.259Z,77.05
2019-02-18T07:48:40.015Z,76.98
2019-02-18T07:50:47.756Z,76.63
2019-02-18T07:52:55.577Z,76.75
2019-02-18T07:55:03.219Z,77.12
2019-02-18T07:57:10.897Z,76.39
2019-02-18T07:59:18.682Z,76.36
2019-02-18T08:01:26.455Z,76.06
2019-02-18T08:03:34.259Z,75.80
2019-02-18T08:05:42.123Z,75.75
2019-02-18T08:07:49.923Z,76.03
2019-02-18T08:09:57.560Z,75.75
2019-02-18T08:12:05.414Z,75.72
2019-02-18T08:14:13.023Z,75.47
2019-02-18T08:16:20.737Z,75.50
2019-02-18T08:18:28.596Z,75.30
2019-02-18T08:20:36.337Z,75.32
2019-02-18T08:22:44.043Z,75.38
2019-02-18T08:24:51.964Z,75.03
2019-02-18T08:26:59.677Z,74.96
2019-02-18T08:29:07.339Z,74.82
2019-02-18T08:31:16.889Z,74.57
2019-02-18T08:33:24.624Z,74.01
2019-02-18T08:35:32.277Z,73.82
2019-02-18T08:37:40.027Z,74.26
2019-02-18T08:39:47.932Z,73.63
2019-02-18T08:41:55.726Z,72.62
2019-02-18T08:44:03.513Z,72.64
2019-02-18T08:46:11.164Z,73.29
2019-02-18T08:48:18.834Z,72.12
2019-02-18T08:50:26.587Z,72.20
2019-02-18T08:52:34.227Z,72.31
2019-02-18T08:54:42.297Z,72.07
2019-02-18T08:56:50.177Z,71.71
2019-02-18T08:58:57.805Z,71.91
2019-02-18T09:01:05.462Z,72.31
2019-02-18T09:03:13.269Z,71.31
2019-02-18T09:05:21.190Z,71.21
2019-02-18T09:07:29.064Z,71.46
2019-02-18T09:09:36.976Z,71.30
2019-02-18T09:11:44.835Z,71.38
2019-02-18T09:13:52.512Z,71.32
2019-02-18T09:16:00.654Z,71.47
2019-02-18T09:18:09.042Z,71.62
2019-02-18T09:20:16.854Z,71.28
2019-02-18T09:22:42.223Z,71.14
2019-02-18T09:24:56.461Z,70.62
2019-02-18T09:27:04.051Z,71.44
2019-02-18T09:29:11.848Z,70.46
2019-02-18T09:31:24.986Z,70.44
2019-02-18T09:33:32.778Z,69.84
2019-02-18T09:35:41.144Z,69.59
2019-02-18T09:37:48.987Z,69.94
2019-02-18T09:39:56.649Z,70.14
2019-02-18T09:42:04.373Z,69.70
2019-02-18T09:44:12.479Z,69.15
2019-02-18T09:46:20.037Z,68.64
2019-02-18T09:48:27.872Z,68.92
2019-02-18T09:50:35.758Z,68.67
2019-02-18T09:52:43.516Z,68.61
2019-02-18T09:54:51.352Z,67.93
2019-02-18T09:56:59.133Z,68.54
2019-02-18T09:59:06.996Z,67.99
2019-02-18T10:01:14.786Z,68.05
2019-02-18T10:03:31.681Z,67.86
2019-02-18T10:05:31.959Z,67.91
2019-02-18T10:07:39.766Z,67.77
2019-02-18T10:09:47.637Z,66.66
2019-02-18T10:11:55.387Z,66.50
2019-02-18T10:14:03.234Z,66.77
2019-02-18T10:16:11.045Z,66.48
2019-02-18T10:18:18.733Z,66.35
2019-02-18T10:20:26.600Z,66.49
2019-02-18T10:22:34.466Z,65.50
2019-02-18T10:24:50.749Z,66.14
2019-02-18T10:26:51.882Z,66.69
2019-02-18T10:28:59.778Z,65.68
2019-02-18T10:31:07.734Z,65.71
2019-02-18T10:33:15.782Z,65.95
2019-02-18T10:35:26.352Z,65.55
2019-02-18T10:37:33.493Z,65.84
2019-02-18T10:39:41.270Z,64.74
2019-02-18T10:41:49.306Z,65.08
2019-02-18T10:43:57.194Z,64.91
2019-02-18T10:46:05.116Z,64.41
2019-02-18T10:48:12.996Z,64.60
2019-02-18T10:50:21.093Z,64.14
2019-02-18T10:52:28.880Z,63.77
2019-02-18T10:54:37.240Z,64.11
2019-02-18T10:56:45.140Z,64.09
2019-02-18T10:58:53.091Z,64.14
2019-02-18T11:01:00.892Z,63.37
2019-02-18T11:03:09.317Z,63.08
2019-02-18T11:05:17.424Z,64.33
2019-02-18T11:07:25.270Z,64.44
2019-02-18T11:09:33.129Z,64.16
2019-02-18T11:11:40.996Z,64.78
2019-02-18T11:13:49.194Z,64.57
2019-02-18T11:15:57.008Z,64.88
2019-02-18T11:18:04.899Z,64.57
2019-02-18T11:20:13.056Z,64.10
2019-02-18T11:22:20.706Z,64.81
2019-02-18T11:24:28.459Z,63.85
2019-02-18T11:26:36.419Z,62.95
2019-02-18T11:28:44.244Z,63.62
2019-02-18T11:30:51.968Z,64.09
2019-02-18T11:32:59.535Z,63.80
2019-02-18T11:35:08.073Z,64.26
2019-02-18T11:37:15.848Z,64.50
2019-02-18T11:39:23.776Z,64.28
2019-02-18T11:41:31.621Z,64.69
2019-02-18T11:43:39.741Z,62.86
2019-02-18T11:45:47.578Z,63.48
2019-02-18T11:47:55.334Z,63.89
2019-02-18T11:50:03.231Z,64.16
2019-02-18T11:52:11.009Z,63.76
2019-02-18T11:54:18.706Z,63.29
2019-02-18T11:56:26.408Z,63.18
2019-02-18T11:58:34.569Z,63.59
2019-02-18T12:01:03.928Z,62.77
2019-02-18T12:03:12.708Z,63.39
2019-02-18T12:05:20.852Z,63.22
2019-02-18T12:07:28.882Z,63.41
2019-02-18T12:09:36.574Z,64.08
2019-02-18T12:11:44.370Z,63.10
2019-02-18T12:13:52.187Z,63.01
2019-02-18T12:15:59.944Z,63.52
2019-02-18T12:18:08.709Z,62.54
2019-02-18T12:20:17.175Z,62.02
2019-02-18T12:22:25.508Z,61.88
2019-02-18T12:24:33.547Z,60.41
2019-02-18T12:26:41.459Z,61.47
2019-02-18T12:28:49.340Z,60.18
2019-02-18T12:30:56.991Z,60.61
2019-02-18T12:33:05.237Z,61.56
2019-02-18T12:35:13.492Z,60.40
2019-02-18T12:37:21.147Z,60.66
2019-02-18T12:39:28.815Z,60.00
2019-02-18T12:41:36.772Z,60.88
2019-02-18T12:43:44.553Z,61.09
2019-02-18T12:45:52.569Z,60.76
2019-02-18T12:48:00.656Z,60.99
2019-02-18T12:50:09.006Z,60.44
2019-02-18T12:52:16.700Z,60.68
2019-02-18T12:54:24.515Z,60.84
2019-02-18T12:56:32.165Z,60.95
2019-02-18T12:58:39.902Z,60.62
2019-02-18T13:00:47.876Z,59.53
2019-02-18T13:02:55.587Z,59.67
2019-02-18T13:05:03.917Z,60.83
2019-02-18T13:07:11.834Z,60.64
2019-02-18T13:09:19.750Z,60.02
2019-02-18T13:11:27.608Z,59.87
2019-02-18T13:13:35.395Z,60.10
2019-02-18T13:15:43.083Z,59.68
2019-02-18T13:17:51.000Z,60.27
2019-02-18T13:19:58.710Z,61.22
2019-02-18T13:22:06.411Z,61.28
2019-02-18T13:24:14.484Z,60.73
2019-02-18T13:26:22.265Z,60.54
2019-02-18T13:28:30.046Z,61.10
2019-02-18T13:30:38.007Z,60.96
2019-02-18T13:32:45.794Z,61.17
2019-02-18T13:34:53.592Z,60.28
2019-02-18T13:37:03.554Z,60.32
2019-02-18T13:39:11.902Z,60.21
2019-02-18T13:41:19.794Z,60.52
2019-02-18T13:43:27.628Z,60.82
2019-02-18T13:45:35.624Z,60.83
2019-02-18T13:47:43.859Z,59.55
2019-02-18T13:49:51.807Z,60.09
2019-02-18T13:51:59.756Z,60.26
2019-02-18T13:54:07.962Z,60.19
2019-02-18T13:56:16.062Z,59.91
2019-02-18T13:58:23.982Z,60.64
2019-02-18T14:00:31.911Z,61.10
2019-02-18T14:02:40.055Z,61.59
2019-02-18T14:04:48.294Z,61.33
2019-02-18T14:06:56.069Z,61.73
2019-02-18T14:09:04.266Z,61.11
2019-02-18T14:11:12.282Z,61.01
2019-02-18T14:13:19.951Z,61.29
2019-02-18T14:15:27.976Z,62.13
2019-02-18T14:17:36.027Z,61.56
2019-02-18T14:19:43.808Z,61.76
2019-02-18T14:21:51.925Z,61.59
2019-02-18T14:24:00.878Z,62.40
2019-02-18T14:26:08.802Z,62.20
2019-02-18T14:28:17.258Z,62.54
2019-02-18T14:30:25.579Z,63.13
2019-02-18T14:32:33.483Z,62.77
2019-02-18T14:34:41.419Z,62.66
2019-02-18T14:36:49.450Z,63.13
2019-02-18T14:38:57.909Z,62.88
2019-02-18T14:41:06.260Z,63.17
2019-02-18T14:43:14.530Z,63.18
2019-02-18T14:45:22.351Z,62.95
2019-02-18T14:47:30.688Z,62.91
2019-02-18T14:49:38.451Z,63.11
2019-02-18T14:51:46.668Z,63.29
2019-02-18T14:53:55.153Z,63.74
2019-02-18T14:56:03.230Z,63.63
2019-02-18T14:58:11.630Z,64.14
2019-02-18T15:00:24.220Z,64.16
2019-02-18T15:02:31.909Z,64.04
2019-02-18T15:04:39.708Z,63.96
2019-02-18T15:06:47.376Z,64.31
2019-02-18T15:08:55.363Z,64.30
2019-02-18T15:11:03.810Z,64.94
2019-02-18T15:13:11.660Z,64.43
2019-02-18T15:15:19.517Z,65.12
2019-02-18T15:17:27.302Z,65.12
2019-02-18T15:19:35.183Z,65.13
2019-02-18T15:21:43.179Z,65.51
2019-02-18T15:23:51.023Z,66.04
2019-02-18T15:25:58.880Z,66.22
2019-02-18T15:28:07.043Z,66.93
2019-02-18T15:30:15.950Z,66.56
2019-02-18T15:32:23.807Z,66.38
2019-02-18T15:34:31.761Z,66.68
2019-02-18T15:36:39.694Z,66.60
2019-02-18T15:38:48.088Z,66.61
2019-02-18T15:40:56.305Z,67.25
2019-02-18T15:43:06.594Z,67.17
2019-02-18T15:45:15.952Z,67.54
2019-02-18T15:47:24.363Z,67.49
2019-02-18T15:49:33.335Z,68.11
2019-02-18T15:51:41.466Z,68.25
2019-02-18T15:53:49.181Z,68.43
2019-02-18T15:55:57.006Z,68.60
2019-02-18T15:58:04.919Z,68.92
2019-02-18T16:00:17.913Z,69.09
2019-02-18T16:02:26.047Z,68.96
2019-02-18T16:04:33.912Z,69.76
2019-02-18T16:06:41.950Z,69.34
2019-02-18T16:08:49.675Z,69.76
2019-02-18T16:10:57.585Z,69.70
2019-02-18T16:13:05.516Z,70.01
2019-02-18T16:15:13.553Z,69.89
2019-02-18T16:17:21.689Z,70.28
2019-02-18T16:19:49.747Z,70.41
2019-02-18T16:21:57.884Z,71.00
2019-02-18T16:24:07.057Z,71.21
2019-02-18T16:26:14.923Z,71.15
2019-02-18T16:28:22.713Z,71.17
2019-02-18T16:30:31.226Z,71.42
2019-02-18T16:32:39.008Z,71.78
2019-02-18T16:34:46.794Z,71.94
2019-02-18T16:36:54.885Z,72.10
2019-02-18T16:39:02.559Z,71.91
2019-02-18T16:41:10.363Z,72.12
2019-02-18T16:43:18.509Z,72.35
2019-02-18T16:45:26.488Z,72.33
2019-02-18T16:47:34.446Z,72.77
2019-02-18T16:49:42.432Z,72.93
2019-02-18T16:51:50.573Z,72.48
2019-02-18T16:53:58.328Z,72.87
2019-02-18T16:56:06.239Z,72.95
2019-02-18T16:58:14.186Z,72.99
2019-02-18T17:00:26.490Z,73.16
2019-02-18T17:02:34.424Z,73.52
2019-02-18T17:04:42.279Z,73.45
2019-02-18T17:06:50.338Z,73.46
2019-02-18T17:08:58.475Z,73.24
2019-02-18T17:11:06.370Z,73.31
2019-02-18T17:13:14.228Z,72.99
2019-02-18T17:15:22.326Z,73.67
2019-02-18T17:17:30.131Z,73.45
2019-02-18T17:19:37.930Z,73.49
2019-02-18T17:21:45.873Z,73.60
2019-02-18T17:23:53.674Z,73.65
2019-02-18T17:26:01.535Z,73.50
2019-02-18T17:28:11.350Z,73.33
2019-02-18T17:30:20.400Z,73.79
2019-02-18T17:32:28.582Z,73.93
2019-02-18T17:34:36.449Z,73.83
2019-02-18T17:36:44.516Z,74.11
2019-02-18T17:38:52.725Z,74.13
2019-02-18T17:41:01.540Z,74.67
2019-02-18T17:43:16.208Z,74.31
2019-02-18T17:45:18.964Z,74.62
2019-02-18T17:47:26.724Z,74.27
2019-02-18T17:49:34.643Z,74.37
2019-02-18T17:51:42.464Z,74.70
2019-02-18T17:53:50.657Z,74.46
2019-02-18T17:55:58.528Z,74.69
2019-02-18T17:58:06.453Z,75.08
2019-02-18T18:00:18.350Z,74.76
2019-02-18T18:02:26.523Z,74.57
2019-02-18T18:04:34.713Z,74.91
2019-02-18T18:06:42.776Z,74.77
2019-02-18T18:08:50.892Z,75.25
2019-02-18T18:10:58.700Z,74.90
2019-02-18T18:13:06.438Z,75.07
2019-02-18T18:15:14.916Z,75.37
2019-02-18T18:17:23.626Z,74.85
2019-02-18T18:19:31.390Z,75.17
2019-02-18T18:21:39.196Z,75.74
2019-02-18T18:23:47.860Z,75.67
2019-02-18T18:25:55.970Z,75.65
2019-02-18T18:28:03.864Z,75.84
2019-02-18T18:30:13.601Z,75.51
2019-02-18T18:32:21.320Z,76.44
2019-02-18T18:34:29.330Z,75.96
2019-02-18T18:36:37.626Z,76.11
2019-02-18T18:38:45.536Z,76.26
2019-02-18T18:40:53.469Z,76.25
2019-02-18T18:43:02.435Z,76.19
2019-02-18T18:45:13.293Z,76.07
2019-02-18T18:47:21.447Z,76.07
2019-02-18T18:49:29.590Z,75.84
2019-02-18T18:51:38.067Z,76.12
2019-02-18T18:53:46.471Z,76.61
2019-02-18T18:55:55.041Z,76.45
2019-02-18T18:58:03.441Z,76.91
2019-02-18T19:00:20.257Z,76.85
2019-02-18T19:02:28.914Z,77.52
2019-02-18T19:04:36.848Z,77.27
2019-02-18T19:06:46.047Z,76.58
2019-02-18T19:08:53.856Z,76.88
2019-02-18T19:11:01.754Z,77.40
2019-02-18T19:13:10.889Z,77.15
2019-02-18T19:15:19.093Z,77.10
2019-02-18T19:17:27.468Z,77.27
2019-02-18T19:19:36.665Z,77.08
2019-02-18T19:21:44.575Z,76.89
2019-02-18T19:23:52.358Z,77.52
2019-02-18T19:26:00.294Z,77.41
2019-02-18T19:28:09.649Z,77.01
2019-02-18T19:30:21.211Z,77.01
2019-02-18T19:32:30.761Z,77.34
2019-02-18T19:34:38.545Z,77.80
2019-02-18T19:36:46.422Z,77.67
2019-02-18T19:38:54.382Z,77.76
2019-02-18T19:41:02.165Z,77.60
2019-02-18T19:43:11.014Z,77.87
2019-02-18T19:45:21.108Z,77.34
2019-02-18T19:47:29.556Z,77.76
2019-02-18T19:49:37.887Z,77.86
2019-02-18T19:51:45.598Z,77.25
2019-02-18T19:53:53.435Z,77.75
2019-02-18T19:56:01.361Z,77.52
2019-02-18T19:58:09.469Z,77.70
2019-02-18T20:00:18.836Z,78.28
2019-02-18T20:02:26.570Z,78.09
2019-02-18T20:04:34.664Z,78.36
2019-02-18T20:06:43.297Z,78.13
2019-02-18T20:08:51.815Z,78.18
2019-02-18T20:11:00.350Z,78.18
2019-02-18T20:13:09.158Z,77.90
2019-02-18T20:15:17.194Z,78.22
2019-02-18T20:17:25.091Z,78.41
2019-02-18T20:19:32.852Z,78.66
2019-02-18T20:21:41.185Z,78.72
2019-02-18T20:23:50.809Z,79.07
2019-02-18T20:25:58.924Z,79.35
2019-02-18T20:28:06.822Z,78.97
2019-02-18T20:30:15.147Z,79.14
2019-02-18T20:32:23.264Z,78.90
2019-02-18T20:34:31.169Z,79.34
2019-02-18T20:36:39.057Z,78.98
2019-02-18T20:38:47.110Z,79.12
2019-02-18T20:40:54.992Z,79.21
2019-02-18T20:43:02.789Z,78.83
2019-02-18T20:45:11.857Z,78.91
2019-02-18T20:47:21.462Z,78.78
2019-02-18T20:49:29.454Z,79.36
2019-02-18T20:51:37.437Z,78.95
2019-02-18T20:53:45.760Z,78.65
2019-02-18T20:55:53.822Z,79.21
2019-02-18T20:58:01.812Z,79.13
2019-02-18T21:00:16.778Z,79.35
2019-02-18T21:02:25.046Z,79.32
2019-02-18T21:04:32.980Z,79.36
2019-02-18T21:06:40.684Z,79.34
2019-02-18T21:08:48.486Z,79.35
2019-02-18T21:10:57.155Z,79.00
2019-02-18T21:13:05.046Z,78.93
2019-02-18T21:15:13.561Z,78.82
2019-02-18T21:17:21.795Z,78.62
2019-02-18T21:19:29.782Z,78.71
2019-02-18T21:21:37.846Z,78.85
2019-02-18T21:23:45.721Z,78.45
2019-02-18T21:25:53.662Z,79.44
2019-02-18T21:28:01.580Z,79.29
2019-02-18T21:30:10.641Z,78.73
2019-02-18T21:32:18.449Z,78.64
2019-02-18T21:34:26.341Z,78.57
2019-02-18T21:36:34.884Z,78.72
2019-02-18T21:38:42.854Z,78.61
2019-02-18T21:40:51.217Z,78.59
2019-02-18T21:42:59.297Z,78.70
2019-02-18T21:45:07.586Z,78.95
2019-02-18T21:47:15.434Z,79.03
2019-02-18T21:49:23.336Z,78.89
2019-02-18T21:51:31.070Z,79.90
2019-02-18T21:53:39.023Z,79.30
2019-02-18T21:55:47.054Z,79.36
2019-02-18T21:57:54.993Z,79.42
2019-02-18T22:00:02.927Z,79.36
2019-02-18T22:02:10.946Z,78.94
2019-02-18T22:04:18.778Z,79.48
2019-02-18T22:06:26.727Z,79.47
2019-02-18T22:08:34.557Z,79.23
2019-02-18T22:10:42.764Z,79.49
2019-02-18T22:12:50.581Z,79.23
2019-02-18T22:14:58.539Z,79.79
2019-02-18T22:17:06.442Z,79.53
2019-02-18T22:19:14.591Z,80.27
2019-02-18T22:21:23.964Z,80.18
2019-02-18T22:23:31.867Z,79.75
2019-02-18T22:25:40.056Z,80.00
2019-02-18T22:27:47.902Z,80.10
2019-02-18T22:29:55.655Z,80.04
2019-02-18T22:32:03.563Z,80.34
2019-02-18T22:34:11.379Z,80.16
2019-02-18T22:36:19.319Z,80.58
2019-02-18T22:38:27.210Z,80.00
2019-02-18T22:40:34.977Z,80.65
2019-02-18T22:42:42.755Z,80.25
2019-02-18T22:44:50.853Z,80.22
2019-02-18T22:46:58.809Z,79.81
2019-02-18T22:49:06.673Z,80.13
2019-02-18T22:51:14.411Z,80.19
2019-02-18T22:53:22.569Z,80.47
2019-02-18T22:55:30.384Z,80.27
2019-02-18T22:57:38.247Z,80.44
2019-02-18T22:59:46.047Z,80.18
2019-02-18T23:01:53.972Z,80.51
2019-02-18T23:04:01.872Z,80.24
2019-02-18T23:06:09.695Z,80.04
2019-02-18T23:08:17.717Z,80.84
2019-02-18T23:10:25.587Z,80.72
2019-02-18T23:12:33.127Z,80.57
2019-02-18T23:14:41.308Z,80.12
2019-02-18T23:16:49.239Z,80.59
2019-02-18T23:18:56.986Z,81.08
2019-02-18T23:21:05.017Z,80.82
2019-02-18T23:23:12.735Z,80.91
2019-02-18T23:25:20.541Z,81.01
2019-02-18T23:27:28.393Z,80.96
2019-02-18T23:29:36.517Z,81.14
2019-02-18T23:31:44.354Z,81.27
2019-02-18T23:33:51.942Z,81.02
2019-02-18T23:35:59.994Z,80.71
2019-02-18T23:38:07.886Z,80.79
2019-02-18T23:40:15.542Z,80.95
2019-02-18T23:42:23.384Z,80.66
2019-02-18T23:44:31.449Z,80.92
2019-02-18T23:46:39.320Z,80.95
2019-02-18T23:48:47.094Z,81.31
2019-02-18T23:50:54.948Z,82.02
2019-02-18T23:53:02.622Z,81.23
2019-02-18T23:55:10.482Z,81.21
2019-02-18T23:57:18.150Z,81.35
2019-02-18T23:59:25.914Z,81.59
